createdAt,value
2019-03-30T00:02:51.800Z,10.63
2019-03-30T00:07:54.722Z,11.27
2019-03-30T00:12:57.668Z,9.83
2019-03-30T00:18:00.578Z,10.43
2019-03-30T00:23:03.749Z,10.73
2019-03-30T00:28:06.733Z,11.30
2019-03-30T00:33:09.729Z,9.83
2019-03-30T00:38:12.703Z,9.67
2019-03-30T00:43:16.502Z,10.50
2019-03-30T00:48:20.366Z,9.03
2019-03-30T00:53:25.918Z,10.23
2019-03-30T00:58:28.890Z,9.40
2019-03-30T01:03:36.971Z,10.17
2019-03-30T01:08:40.068Z,9.77
2019-03-30T01:13:43.015Z,9.40
2019-03-30T01:18:45.965Z,9.07
2019-03-30T01:23:50.278Z,9.90
2019-03-30T01:28:53.275Z,9.53
2019-03-30T01:33:56.589Z,9.80
2019-03-30T01:38:59.577Z,9.47
2019-03-30T01:44:02.620Z,9.40
2019-03-30T02:27:58.335Z,10.10
2019-03-30T02:33:01.346Z,10.47
2019-03-30T02:38:05.144Z,9.90
2019-03-30T02:43:08.226Z,10.40
2019-03-30T02:48:11.247Z,9.70
2019-03-30T05:21:52.245Z,9.77
2019-03-30T05:26:56.358Z,10.47
2019-03-30T05:42:46.746Z,9.60
2019-03-30T05:47:50.086Z,10.33
2019-03-30T06:20:12.851Z,10.67
2019-03-30T06:25:16.570Z,10.27
2019-03-30T06:30:22.450Z,10.30
2019-03-30T06:35:27.842Z,11.33
2019-03-30T06:40:33.610Z,10.80
2019-03-30T06:45:37.513Z,11.10
2019-03-30T06:50:41.028Z,12.13
2019-03-30T08:07:51.759Z,11.67
2019-03-30T08:12:55.820Z,11.40
2019-03-30T08:17:58.858Z,12.00
2019-03-30T08:23:01.906Z,12.57
2019-03-30T08:28:04.912Z,11.40
2019-03-30T08:33:08.277Z,12.93
2019-03-30T08:38:11.414Z,11.43
2019-03-30T08:43:14.762Z,11.50
2019-03-30T08:48:17.759Z,10.73
2019-03-30T08:53:20.707Z,10.50
2019-03-30T08:58:24.148Z,10.70
2019-03-30T09:03:27.816Z,11.03
2019-03-30T09:08:31.884Z,11.57
2019-03-30T09:13:36.052Z,10.53
2019-03-30T09:18:39.016Z,11.07
2019-03-30T09:23:42.038Z,11.07
2019-03-30T09:28:45.000Z,11.33
2019-03-30T09:33:48.569Z,11.17
2019-03-30T09:38:51.735Z,11.30
2019-03-30T09:43:55.367Z,13.50
2019-03-30T09:48:58.427Z,11.80
2019-03-30T09:54:01.435Z,11.33
2019-03-30T09:59:04.523Z,11.00
2019-03-30T10:09:42.354Z,12.10
2019-03-30T10:14:45.612Z,11.13
2019-03-30T10:20:03.571Z,12.47
2019-03-30T10:24:53.906Z,10.97
2019-03-30T10:29:57.365Z,11.97
2019-03-30T10:35:00.779Z,11.47
2019-03-30T10:40:04.705Z,11.23
2019-03-30T10:45:07.828Z,11.43
2019-03-30T10:50:11.643Z,11.50
2019-03-30T10:55:14.973Z,11.60
2019-03-30T11:00:35.943Z,12.10
2019-03-30T11:05:39.189Z,12.13
2019-03-30T11:10:42.275Z,11.73
2019-03-30T11:15:45.187Z,12.07
2019-03-30T11:20:48.547Z,12.13
2019-03-30T11:25:52.807Z,11.43
2019-03-30T11:30:55.765Z,12.67
2019-03-30T11:36:00.211Z,12.97
2019-03-30T11:41:03.159Z,12.20
2019-03-30T11:46:06.175Z,11.57
2019-03-30T11:51:09.155Z,12.17
2019-03-30T11:56:12.159Z,11.33
2019-03-30T12:01:15.123Z,12.00
2019-03-30T12:06:18.262Z,10.17
2019-03-30T12:11:21.843Z,11.27
2019-03-30T12:16:24.759Z,11.27
2019-03-30T12:21:27.711Z,11.77
2019-03-30T12:26:30.637Z,12.20
2019-03-30T12:31:33.656Z,9.60
2019-03-30T12:36:37.395Z,10.63
2019-03-30T12:41:40.317Z,10.67
2019-03-30T12:46:43.469Z,11.03
2019-03-30T12:51:46.450Z,9.70
2019-03-30T12:56:51.104Z,9.93
2019-03-30T13:01:53.999Z,10.43
2019-03-30T13:06:57.116Z,9.33
2019-03-30T13:12:00.003Z,9.90
2019-03-30T13:17:03.497Z,10.30
2019-03-30T13:22:06.400Z,9.37
2019-03-30T13:27:12.735Z,10.20
2019-03-30T13:32:14.080Z,9.77
2019-03-30T13:37:18.180Z,9.30
2019-03-30T13:42:21.123Z,9.80
2019-03-30T13:47:24.086Z,10.47
2019-03-30T13:52:27.639Z,8.70
2019-03-30T13:57:30.609Z,8.77
2019-03-30T14:02:33.748Z,8.03
2019-03-30T14:07:37.052Z,8.70
2019-03-30T14:12:40.001Z,8.80
2019-03-30T14:17:44.188Z,8.57
2019-03-30T14:22:47.440Z,8.60
2019-03-30T14:27:50.407Z,8.07
2019-03-30T14:32:53.835Z,8.20
2019-03-30T14:37:58.220Z,8.27
2019-03-30T14:43:02.678Z,9.23
2019-03-30T14:48:05.700Z,9.20
2019-03-30T14:53:08.721Z,9.38
2019-03-30T14:58:11.656Z,9.53
2019-03-30T15:03:14.939Z,8.55
2019-03-30T15:08:19.176Z,9.38
2019-03-30T15:13:22.239Z,8.48
2019-03-30T15:18:25.146Z,8.73
2019-03-30T15:23:28.094Z,8.58
2019-03-30T15:28:31.424Z,8.75
2019-03-30T15:33:34.377Z,8.93
2019-03-30T15:38:37.668Z,8.38
2019-03-30T15:43:40.576Z,8.60
2019-03-30T15:48:43.625Z,9.43
2019-03-30T15:53:46.940Z,8.48
2019-03-30T15:58:50.064Z,8.85
2019-03-30T16:03:53.115Z,7.58
2019-03-30T16:08:56.288Z,8.25
2019-03-30T16:13:59.573Z,8.48
2019-03-30T16:19:02.519Z,8.68
2019-03-30T16:24:05.751Z,9.05
2019-03-30T16:29:09.776Z,9.35
2019-03-30T16:34:12.786Z,9.35
2019-03-30T16:39:15.894Z,9.20
2019-03-30T16:44:18.818Z,8.98
2019-03-30T16:49:21.811Z,9.00
2019-03-30T16:54:24.695Z,9.45
2019-03-30T16:59:27.980Z,8.93
2019-03-30T17:04:30.887Z,9.28
2019-03-30T17:09:34.719Z,9.00
2019-03-30T17:14:38.131Z,9.47
2019-03-30T17:19:42.307Z,8.83
2019-03-30T17:24:45.192Z,8.20
2019-03-30T17:29:48.803Z,8.33
2019-03-30T17:34:51.967Z,8.53
2019-03-30T17:39:55.078Z,9.10
2019-03-30T17:44:58.291Z,9.43
2019-03-30T17:50:01.211Z,9.63
2019-03-30T17:55:04.164Z,8.60
2019-03-30T18:00:09.259Z,11.07
2019-03-30T18:05:12.491Z,11.83
2019-03-30T18:10:15.488Z,10.90
2019-03-30T18:15:19.444Z,11.27
2019-03-30T18:20:22.741Z,11.63
2019-03-30T18:25:25.767Z,10.87
2019-03-30T18:30:36.724Z,10.43
2019-03-30T18:35:39.915Z,8.33
2019-03-30T18:40:43.111Z,8.53
2019-03-30T18:45:46.268Z,10.47
2019-03-30T18:50:49.243Z,10.13
2019-03-30T18:55:52.192Z,11.20
2019-03-30T19:00:55.213Z,12.57
2019-03-30T19:05:58.292Z,12.20
2019-03-30T19:11:01.423Z,13.13
2019-03-30T19:16:04.591Z,12.63
2019-03-30T19:21:07.568Z,13.67
2019-03-30T19:26:10.573Z,13.30
2019-03-30T19:31:13.548Z,12.87
2019-03-30T19:36:16.562Z,13.20
2019-03-30T19:41:19.623Z,13.40
2019-03-30T19:46:22.731Z,13.70
2019-03-30T19:51:25.720Z,13.33
2019-03-30T19:56:28.652Z,13.63
2019-03-30T20:01:31.599Z,14.57
2019-03-30T20:06:34.675Z,14.97
2019-03-30T20:11:37.678Z,15.37
2019-03-30T20:16:42.326Z,14.93
2019-03-30T20:21:45.879Z,14.70
2019-03-30T20:26:48.704Z,14.57
2019-03-30T20:31:51.760Z,13.73
2019-03-30T20:36:54.768Z,14.23
2019-03-30T20:41:57.688Z,14.10
2019-03-30T20:47:01.035Z,16.23
2019-03-30T20:52:03.911Z,14.60
2019-03-30T20:57:06.893Z,14.50
2019-03-30T21:02:09.876Z,15.73
2019-03-30T21:07:12.850Z,16.03
2019-03-30T21:12:15.859Z,14.70
2019-03-30T21:17:19.167Z,14.80
2019-03-30T21:22:22.650Z,14.83
2019-03-30T21:27:25.847Z,15.00
2019-03-30T21:32:28.819Z,15.17
2019-03-30T21:37:31.917Z,14.90
2019-03-30T21:42:35.188Z,14.70
2019-03-30T21:47:39.555Z,15.40
2019-03-30T21:52:44.715Z,14.50
2019-03-30T21:57:47.947Z,14.30
2019-03-30T22:02:50.856Z,15.13
2019-03-30T22:07:53.778Z,14.30
2019-03-30T22:12:56.788Z,13.77
2019-03-30T22:17:59.633Z,15.97
2019-03-30T22:23:04.191Z,15.10
2019-03-30T22:28:07.148Z,14.57
2019-03-30T22:33:10.050Z,15.40
2019-03-30T22:38:13.081Z,13.93
2019-03-30T22:43:16.409Z,13.63
2019-03-30T22:48:19.244Z,13.73
2019-03-30T22:53:24.039Z,16.43
2019-03-30T22:58:26.955Z,14.33
2019-03-30T23:03:29.956Z,15.40
2019-03-30T23:08:32.904Z,15.27
2019-03-30T23:13:35.855Z,14.87
2019-03-30T23:18:38.818Z,14.03
2019-03-30T23:23:52.364Z,13.70
2019-03-30T23:28:59.422Z,13.60
2019-03-30T23:34:02.121Z,13.83
2019-03-30T23:39:07.775Z,12.93
2019-03-30T23:44:10.688Z,12.00
2019-03-30T23:49:13.636Z,12.50
2019-03-30T23:54:18.535Z,12.87
2019-03-30T23:59:21.505Z,10.90
